createdAt,value
2023-10-18T00:03:28.395Z,101389.97
2023-10-18T00:08:30.383Z,101385.00
2023-10-18T00:13:33.815Z,101397.53
2023-10-18T00:18:36.754Z,101389.69
2023-10-18T00:23:38.609Z,101395.69
2023-10-18T00:28:42.365Z,101399.09
2023-10-18T00:33:44.900Z,101392.88
2023-10-18T00:38:47.588Z,101391.09
2023-10-18T00:43:51.280Z,101390.81
2023-10-18T00:48:54.055Z,101383.59
2023-10-18T00:53:56.239Z,101370.44
2023-10-18T00:58:59.802Z,101375.91
2023-10-18T01:04:01.997Z,101365.00
2023-10-18T01:09:04.428Z,101361.59
2023-10-18T01:14:08.238Z,101347.06
2023-10-18T01:19:10.499Z,101351.72
2023-10-18T01:24:12.988Z,101349.81
2023-10-18T01:29:16.470Z,101350.03
2023-10-18T01:34:19.016Z,101337.97
2023-10-18T01:39:21.322Z,101337.63
2023-10-18T01:44:25.168Z,101334.03
2023-10-18T01:49:27.458Z,101331.19
2023-10-18T01:54:29.647Z,101327.00
2023-10-18T01:59:33.232Z,101321.13
2023-10-18T02:04:49.499Z,101310.88
2023-10-18T02:09:53.614Z,101302.09
2023-10-18T02:14:57.144Z,101297.03
2023-10-18T02:19:58.950Z,101311.06
2023-10-18T02:25:00.784Z,101308.75
2023-10-18T02:30:04.861Z,101299.38
2023-10-18T02:35:07.589Z,101297.53
2023-10-18T02:40:10.218Z,101304.31
2023-10-18T02:45:14.850Z,101298.56
2023-10-18T02:50:17.248Z,101300.59
2023-10-18T02:55:19.521Z,101299.13
2023-10-18T03:00:22.816Z,101289.31
2023-10-18T03:05:24.958Z,101280.13
2023-10-18T03:10:26.764Z,101280.28
2023-10-18T03:15:30.516Z,101283.88
2023-10-18T03:20:32.285Z,101278.41
2023-10-18T03:25:34.525Z,101270.41
2023-10-18T03:30:37.865Z,101279.50
2023-10-18T03:35:40.380Z,101284.91
2023-10-18T03:40:42.874Z,101273.03
2023-10-18T03:45:46.491Z,101273.03
2023-10-18T03:50:50.322Z,101272.84
2023-10-18T03:55:52.803Z,101270.41
2023-10-18T04:00:56.388Z,101270.53
2023-10-18T04:06:02.244Z,101250.81
2023-10-18T04:11:04.369Z,101249.19
2023-10-18T04:16:12.323Z,101250.72
2023-10-18T04:21:14.605Z,101250.06
2023-10-18T04:26:17.059Z,101241.28
2023-10-18T04:31:20.354Z,101233.84
2023-10-18T04:36:23.171Z,101231.09
2023-10-18T04:41:26.215Z,101232.09
2023-10-18T04:46:31.686Z,101234.09
2023-10-18T04:51:34.064Z,101232.56
2023-10-18T04:56:36.440Z,101229.06
2023-10-18T05:01:40.052Z,101233.00
2023-10-18T05:06:41.928Z,101223.78
2023-10-18T05:11:43.714Z,101225.25
2023-10-18T05:16:47.203Z,101235.66
2023-10-18T05:21:49.409Z,101237.84
2023-10-18T05:26:51.436Z,101246.06
2023-10-18T05:31:54.951Z,101247.72
2023-10-18T05:36:57.799Z,101251.75
2023-10-18T05:41:59.917Z,101261.63
2023-10-18T05:47:03.733Z,101253.16
2023-10-18T05:52:05.687Z,101249.13
2023-10-18T05:57:07.523Z,101236.16
2023-10-18T06:02:11.744Z,101223.88
2023-10-18T06:07:14.223Z,101211.75
2023-10-18T06:12:16.792Z,101204.53
2023-10-18T06:17:20.462Z,101202.47
2023-10-18T06:22:22.760Z,101224.25
2023-10-18T06:27:25.311Z,101213.94
2023-10-18T06:32:28.885Z,101217.00
2023-10-18T06:37:31.246Z,101215.25
2023-10-18T06:42:33.299Z,101213.72
2023-10-18T06:47:37.305Z,101212.75
2023-10-18T06:52:39.170Z,101213.59
2023-10-18T06:57:41.056Z,101213.94
2023-10-18T07:02:44.689Z,101218.81
2023-10-18T07:07:46.861Z,101211.75
2023-10-18T07:12:49.466Z,101209.75
2023-10-18T07:17:54.136Z,101210.56
2023-10-18T07:22:57.700Z,101202.94
2023-10-18T07:28:02.001Z,101199.97
2023-10-18T07:33:06.938Z,101211.25
2023-10-18T07:38:09.336Z,101204.00
2023-10-18T07:43:11.529Z,101199.25
2023-10-18T07:48:15.216Z,101194.44
2023-10-18T07:53:18.159Z,101187.41
2023-10-18T07:58:20.503Z,101176.25
2023-10-18T08:03:24.148Z,101168.97
2023-10-18T08:08:26.956Z,101173.47
2023-10-18T08:13:29.174Z,101160.06
2023-10-18T08:18:32.829Z,101164.19
2023-10-18T08:23:34.947Z,101162.09
2023-10-18T08:28:40.869Z,101166.06
2023-10-18T08:33:45.211Z,101173.91
2023-10-18T08:38:47.602Z,101167.03
2023-10-18T08:44:04.480Z,101157.44
2023-10-18T08:49:09.537Z,101146.22
2023-10-18T08:54:15.269Z,101141.31
2023-10-18T08:59:19.186Z,101142.44
2023-10-18T09:04:22.691Z,101138.28
2023-10-18T09:09:25.408Z,101131.53
2023-10-18T09:14:27.193Z,101123.72
2023-10-18T09:19:31.872Z,101116.69
2023-10-18T09:24:34.065Z,101108.09
2023-10-18T09:29:36.176Z,101115.19
2023-10-18T09:34:40.381Z,101109.03
2023-10-18T09:39:43.635Z,101102.84
2023-10-18T09:44:45.966Z,101095.72
2023-10-18T09:49:51.371Z,101087.72
2023-10-18T09:55:01.898Z,101086.97
2023-10-18T10:00:04.613Z,101083.78
2023-10-18T10:05:08.980Z,101077.78
2023-10-18T10:10:11.471Z,101079.53
2023-10-18T10:15:14.126Z,101062.75
2023-10-18T10:20:18.708Z,101072.66
2023-10-18T10:25:24.821Z,101071.63
2023-10-18T10:30:36.341Z,101069.69
2023-10-18T10:35:44.549Z,101064.38
2023-10-18T10:40:48.937Z,101051.34
2023-10-18T10:45:51.066Z,101048.41
2023-10-18T10:50:59.815Z,101046.50
2023-10-18T10:56:13.967Z,101031.25
2023-10-18T11:01:16.055Z,101033.59
2023-10-18T11:06:23.968Z,101019.59
2023-10-18T11:11:26.175Z,101020.44
2023-10-18T11:16:28.534Z,101003.19
2023-10-18T11:21:32.125Z,101000.13
2023-10-18T11:26:34.252Z,100997.59
2023-10-18T11:31:37.239Z,100991.22
2023-10-18T11:36:42.552Z,100980.00
2023-10-18T11:41:45.712Z,100976.69
2023-10-18T11:46:49.013Z,100975.97
2023-10-18T11:51:53.157Z,100964.31
2023-10-18T11:56:55.395Z,100956.50
2023-10-18T12:01:58.103Z,100940.94
2023-10-18T12:07:01.776Z,100933.31
2023-10-18T12:12:04.624Z,100921.47
2023-10-18T12:17:06.486Z,100910.34
2023-10-18T12:22:10.270Z,100899.19
2023-10-18T12:27:12.431Z,100893.19
2023-10-18T12:32:14.424Z,100895.59
2023-10-18T12:37:18.674Z,100888.72
2023-10-18T12:42:22.234Z,100879.59
2023-10-18T12:47:24.616Z,100874.16
2023-10-18T12:52:27.932Z,100858.38
2023-10-18T12:57:30.748Z,100846.25
2023-10-18T13:02:33.139Z,100843.59
2023-10-18T13:07:36.437Z,100833.66
2023-10-18T13:12:38.743Z,100827.53
2023-10-18T13:17:40.974Z,100822.16
2023-10-18T13:22:45.104Z,100810.44
2023-10-18T13:27:47.504Z,100802.81
2023-10-18T13:32:49.811Z,100801.31
2023-10-18T13:37:53.275Z,100778.88
2023-10-18T13:42:55.955Z,100782.84
2023-10-18T13:47:58.547Z,100771.69
2023-10-18T13:53:02.352Z,100756.88
2023-10-18T13:58:04.644Z,100758.44
2023-10-18T14:03:07.115Z,100755.38
2023-10-18T14:08:10.818Z,100756.22
2023-10-18T14:13:15.488Z,100749.00
2023-10-18T14:18:17.986Z,100735.78
2023-10-18T14:23:21.578Z,100731.38
2023-10-18T14:28:23.823Z,100733.91
2023-10-18T14:33:33.770Z,100729.38
2023-10-18T14:38:38.772Z,100716.59
2023-10-18T14:43:41.364Z,100701.88
2023-10-18T14:48:43.559Z,100690.53
2023-10-18T14:53:47.601Z,100681.06
2023-10-18T14:58:51.100Z,100671.41
2023-10-18T15:03:53.448Z,100671.50
2023-10-18T15:08:56.782Z,100660.34
2023-10-18T15:13:59.215Z,100646.53
2023-10-18T15:19:01.783Z,100656.94
2023-10-18T15:24:06.242Z,100655.38
2023-10-18T15:29:10.187Z,100643.94
2023-10-18T15:34:14.945Z,100644.38
2023-10-18T15:39:18.781Z,100643.31
2023-10-18T15:44:20.857Z,100631.22
2023-10-18T15:49:23.668Z,100625.34
2023-10-18T15:54:29.716Z,100613.03
2023-10-18T15:59:32.599Z,100607.19
2023-10-18T16:04:34.942Z,100599.56
2023-10-18T16:09:38.747Z,100601.47
2023-10-18T16:14:40.523Z,100589.84
2023-10-18T16:19:43.724Z,100585.63
2023-10-18T16:24:47.212Z,100587.56
2023-10-18T16:29:50.241Z,100586.72
2023-10-18T16:34:52.586Z,100586.72
2023-10-18T16:39:56.313Z,100599.22
2023-10-18T16:44:58.308Z,100585.22
2023-10-18T16:50:12.456Z,100582.59
2023-10-18T16:55:28.920Z,100585.41
2023-10-18T17:00:41.243Z,100588.09
2023-10-18T17:05:43.064Z,100573.19
2023-10-18T17:10:46.821Z,100569.66
2023-10-18T17:15:49.314Z,100566.13
2023-10-18T17:21:02.358Z,100560.88
2023-10-18T17:26:15.563Z,100553.84
2023-10-18T17:31:19.457Z,100546.81
2023-10-18T17:36:21.594Z,100539.72
2023-10-18T17:41:24.850Z,100539.78
2023-10-18T17:46:27.267Z,100528.34
2023-10-18T17:51:29.580Z,100520.38
2023-10-18T17:56:32.831Z,100511.44
2023-10-18T18:01:34.715Z,100515.81
2023-10-18T18:06:36.950Z,100505.19
2023-10-18T18:11:40.548Z,100493.75
2023-10-18T18:16:42.728Z,100484.84
2023-10-18T18:21:45.072Z,100483.19
2023-10-18T18:26:49.316Z,100484.97
2023-10-18T18:31:51.806Z,100482.16
2023-10-18T18:36:54.084Z,100477.81
2023-10-18T18:41:57.680Z,100473.38
2023-10-18T18:47:00.047Z,100464.63
2023-10-18T18:52:02.291Z,100467.22
2023-10-18T18:57:05.922Z,100459.28
2023-10-18T19:02:08.100Z,100445.19
2023-10-18T19:07:10.243Z,100448.78
2023-10-18T19:12:13.383Z,100436.53
2023-10-18T19:17:15.926Z,100434.75
2023-10-18T19:22:17.877Z,100432.28
2023-10-18T19:27:21.616Z,100435.69
2023-10-18T19:32:23.809Z,100430.50
2023-10-18T19:37:26.087Z,100424.34
2023-10-18T19:42:29.639Z,100419.03
2023-10-18T19:47:32.682Z,100409.38
2023-10-18T19:52:34.839Z,100402.34
2023-10-18T19:57:38.509Z,100407.63
2023-10-18T20:02:40.932Z,100404.28
2023-10-18T20:07:43.241Z,100403.41
2023-10-18T20:12:46.748Z,100402.59
2023-10-18T20:17:49.282Z,100393.81
2023-10-18T20:22:51.430Z,100383.22
2023-10-18T20:27:55.639Z,100370.06
2023-10-18T20:32:57.517Z,100367.44
2023-10-18T20:37:59.771Z,100356.91
2023-10-18T20:43:03.563Z,100343.72
2023-10-18T20:48:07.251Z,100331.44
2023-10-18T20:53:09.457Z,100320.81
2023-10-18T20:58:13.438Z,100309.50
2023-10-18T21:03:15.775Z,100323.44
2023-10-18T21:08:17.864Z,100320.00
2023-10-18T21:13:21.425Z,100302.44
2023-10-18T21:18:23.644Z,100298.00
2023-10-18T21:23:25.908Z,100291.81
2023-10-18T21:28:29.577Z,100286.63
2023-10-18T21:33:31.761Z,100270.81
2023-10-18T21:38:35.391Z,100251.34
2023-10-18T21:43:38.610Z,100239.03
2023-10-18T21:48:42.024Z,100232.00
2023-10-18T21:53:44.761Z,100224.09
2023-10-18T21:58:48.437Z,100231.94
2023-10-18T22:03:50.789Z,100218.81
2023-10-18T22:08:53.057Z,100211.78
2023-10-18T22:13:56.534Z,100193.34
2023-10-18T22:18:58.718Z,100175.81
2023-10-18T22:24:00.869Z,100181.03
2023-10-18T22:29:04.460Z,100174.94
2023-10-18T22:34:06.995Z,100190.66
2023-10-18T22:39:09.467Z,100172.25
2023-10-18T22:44:13.003Z,100160.81
2023-10-18T22:49:15.384Z,100152.00
2023-10-18T22:54:17.593Z,100137.06
2023-10-18T22:59:21.501Z,100123.88
2023-10-18T23:04:23.713Z,100109.78
2023-10-18T23:09:25.796Z,100084.38
2023-10-18T23:14:29.551Z,100085.31
2023-10-18T23:19:32.242Z,100068.69
2023-10-18T23:24:34.408Z,100063.28
2023-10-18T23:29:37.752Z,100061.63
2023-10-18T23:34:40.091Z,100053.69
2023-10-18T23:39:42.189Z,100044.09
2023-10-18T23:44:47.397Z,100038.88
2023-10-18T23:49:49.798Z,100030.13
2023-10-18T23:54:52.594Z,100015.19
2023-10-18T23:59:56.191Z,100000.25
